Time;durP1;ratioP1;P1;durP2;ratioP2;P2;SDS_P1;SDS_P2;PMS_P1;PMS_P2;Temp;Humidity;BMP_temperature;BMP_pressure;BME280_temperature;BME280_humidity;BME280_pressure;Samples;Min_cycle;Max_cycle;Signal;HPM_P1;HPM_P2
2022/12/27 00:00:06;;;;;;;81.95;61.95;;;10.30;99.90;;;;;;6220780;22;20012;-71
2022/12/27 00:02:32;;;;;;;82.00;63.50;;;10.30;99.90;;;;;;6306950;22;20352;-70
2022/12/27 00:04:58;;;;;;;83.22;61.80;;;10.30;99.90;;;;;;6307399;22;20079;-71
2022/12/27 00:07:24;;;;;;;85.65;64.78;;;10.30;99.90;;;;;;6307302;22;20000;-71
2022/12/27 00:09:50;;;;;;;82.18;63.03;;;10.30;99.90;;;;;;6307203;22;19999;-71
2022/12/27 00:12:15;;;;;;;85.35;64.20;;;10.30;99.90;;;;;;6307219;22;20007;-70
2022/12/27 00:14:43;;;;;;;91.65;68.70;;;10.30;99.90;;;;;;6306914;22;20031;-70
2022/12/27 00:17:09;;;;;;;89.38;67.53;;;10.30;99.90;;;;;;6307223;22;20388;-71
2022/12/27 00:19:34;;;;;;;92.00;68.82;;;10.30;99.90;;;;;;6307178;22;20037;-71
2022/12/27 00:22:00;;;;;;;86.00;67.68;;;10.30;99.90;;;;;;6306965;22;19999;-70
2022/12/27 00:24:26;;;;;;;89.53;66.15;;;10.30;99.90;;;;;;6307164;22;20002;-71
2022/12/27 00:26:52;;;;;;;92.72;67.25;;;10.30;99.90;;;;;;6307265;22;20125;-71
2022/12/27 00:29:17;;;;;;;98.65;68.10;;;10.30;99.90;;;;;;6279646;22;20011;-70
2022/12/27 00:31:43;;;;;;;100.22;67.97;;;10.30;99.90;;;;;;6307150;22;19999;-71
2022/12/27 00:34:10;;;;;;;95.15;69.10;;;10.30;99.90;;;;;;6306792;22;20086;-71
2022/12/27 00:36:35;;;;;;;90.22;64.25;;;10.30;99.90;;;;;;6307394;22;20026;-71
2022/12/27 00:39:01;;;;;;;99.57;68.35;;;10.30;99.90;;;;;;6306969;22;20000;-71
2022/12/27 00:41:27;;;;;;;99.65;67.10;;;10.30;99.90;;;;;;6306974;22;20010;-71
2022/12/27 00:43:53;;;;;;;103.82;66.72;;;10.30;99.90;;;;;;6306609;22;19996;-71
2022/12/27 00:46:19;;;;;;;108.53;67.07;;;10.30;99.90;;;;;;6306849;22;20003;-70
2022/12/27 00:48:45;;;;;;;103.20;65.57;;;10.30;99.90;;;;;;6306916;22;20022;-71
2022/12/27 00:51:15;;;;;;;108.57;66.47;;;10.30;99.90;;;;;;6279513;22;20005;-71
2022/12/27 00:53:41;;;;;;;104.68;66.68;;;10.30;99.90;;;;;;6306662;22;20030;-71
2022/12/27 00:56:16;;;;;;;101.63;66.65;;;10.30;99.90;;;;;;6306383;22;20086;-71
2022/12/27 00:58:42;;;;;;;110.18;68.40;;;10.30;99.90;;;;;;6307426;22;20330;-71
2022/12/27 01:01:14;;;;;;;105.95;65.38;;;10.30;99.90;;;;;;6307463;22;20000;-71
2022/12/27 01:03:40;;;;;;;101.25;64.88;;;10.30;99.90;;;;;;6307610;22;20067;-70
2022/12/27 01:06:08;;;;;;;100.18;60.97;;;10.30;99.90;;;;;;6307367;22;20003;-71
2022/12/27 01:08:35;;;;;;;95.97;58.05;;;10.40;99.90;;;;;;6307618;22;20003;-71
2022/12/27 01:11:24;;;;;;;98.10;57.33;;;10.40;99.90;;;;;;6307532;22;20074;-71
2022/12/27 01:21:10;;;;;;;;;;;10.40;99.90;;;;;;6307817;22;20054;-70
2022/12/27 01:27:18;;;;;;;;;;;10.40;99.90;;;;;;6213177;23;20019;-71
2022/12/27 01:33:18;;;;;;;102.63;56.00;;;10.40;99.90;;;;;;6212972;23;20019;-71
2022/12/27 01:36:54;;;;;;;101.82;57.22;;;10.40;99.90;;;;;;6212342;23;20377;-71
2022/12/27 01:39:20;;;;;;;95.65;55.97;;;10.40;99.90;;;;;;6065140;23;20338;-71
2022/12/27 01:44:42;;;;;;;100.60;55.88;;;10.40;99.90;;;;;;6242474;22;20082;-70
2022/12/27 01:47:30;;;;;;;99.88;57.10;;;10.40;99.90;;;;;;6308709;22;19999;-70
2022/12/27 01:50:35;;;;;;;101.72;58.13;;;10.40;99.90;;;;;;6308779;22;20325;-70
2022/12/27 01:53:19;;;;;;;97.18;54.95;;;10.40;99.90;;;;;;6309050;22;20321;-71
2022/12/27 01:56:03;;;;;;;102.77;57.90;;;10.40;99.90;;;;;;6308666;22;20420;-71
2022/12/27 01:58:35;;;;;;;101.40;58.17;;;10.40;99.90;;;;;;6306748;22;20328;-71
2022/12/27 02:01:03;;;;;;;101.07;56.58;;;10.40;99.90;;;;;;6305398;22;20006;-71
2022/12/27 02:03:34;;;;;;;110.38;56.00;;;10.40;99.90;;;;;;6305313;22;20375;-71
2022/12/27 02:06:03;;;;;;;92.75;53.45;;;10.40;99.90;;;;;;6308104;22;20452;-71
2022/12/27 02:08:35;;;;;;;104.13;54.08;;;10.30;99.90;;;;;;6308307;22;20129;-71
2022/12/27 02:11:02;;;;;;;92.22;50.50;;;10.30;99.90;;;;;;6280897;22;20433;-71
2022/12/27 02:13:30;;;;;;;90.63;49.20;;;10.30;99.90;;;;;;6308191;22;20448;-71
2022/12/27 02:15:56;;;;;;;85.55;46.63;;;10.30;99.90;;;;;;6308041;22;20015;-71
2022/12/27 02:18:22;;;;;;;84.30;44.53;;;10.40;99.90;;;;;;6308324;22;20082;-70
2022/12/27 02:21:06;;;;;;;83.97;43.97;;;10.30;99.90;;;;;;6308177;22;20065;-71
2022/12/27 02:24:01;;;;;;;84.78;43.20;;;10.30;99.90;;;;;;6281135;22;20488;-71
2022/12/27 02:26:46;;;;;;;84.75;42.38;;;10.30;99.90;;;;;;6308873;22;19999;-71
2022/12/27 02:29:30;;;;;;;79.05;41.40;;;10.30;99.90;;;;;;6307791;22;20368;-70
2022/12/27 02:32:09;;;;;;;81.10;41.60;;;10.40;99.90;;;;;;6281167;22;20377;-70
2022/12/27 02:34:47;;;;;;;69.78;40.53;;;10.30;99.90;;;;;;6308518;22;20213;-71
2022/12/27 02:37:13;;;;;;;76.00;42.10;;;10.30;99.90;;;;;;6308562;22;20000;-70
2022/12/27 02:39:45;;;;;;;74.60;41.83;;;10.30;99.90;;;;;;6308652;22;20410;-70
2022/12/27 02:54:10;;;;;;;81.72;41.13;;;10.40;99.90;;;;;;6265321;22;20007;-71
2022/12/27 03:26:51;;;;;;;94.10;53.50;;;10.20;99.90;;;;;;6213538;23;20078;-71
2022/12/27 03:35:15;;;;;;;95.55;53.03;;;10.20;99.90;;;;;;6277035;22;20465;-70
2022/12/27 03:38:04;;;;;;;103.35;53.90;;;10.20;99.90;;;;;;6307252;22;20003;-71
2022/12/27 03:43:36;;;;;;;100.15;55.20;;;10.20;99.90;;;;;;6308178;22;20447;-71
2022/12/27 03:46:32;;;;;;;101.05;56.45;;;10.20;99.90;;;;;;6307933;22;19999;-71
2022/12/27 03:49:13;;;;;;;97.13;57.47;;;10.20;99.90;;;;;;6307821;22;20459;-70
2022/12/27 03:52:04;;;;;;;99.93;56.03;;;10.30;99.90;;;;;;6307907;22;20034;-71
2022/12/27 03:54:34;;;;;;;107.55;58.80;;;10.20;99.90;;;;;;6306745;22;20341;-71
2022/12/27 03:57:02;;;;;;;108.88;59.40;;;10.30;99.90;;;;;;6307631;22;19999;-71
2022/12/27 03:59:29;;;;;;;100.18;55.92;;;10.30;99.90;;;;;;6307252;22;20060;-71
2022/12/27 04:01:55;;;;;;;109.40;58.03;;;10.30;99.90;;;;;;6307608;22;20426;-71
2022/12/27 04:04:21;;;;;;;98.33;59.07;;;10.30;99.90;;;;;;6307083;22;19995;-71
2022/12/27 04:06:47;;;;;;;112.22;61.45;;;10.30;99.90;;;;;;6307005;22;20003;-71
2022/12/27 04:36:38;;;;;;;152.23;69.70;;;10.30;99.90;;;;;;6308049;22;20068;-71
2022/12/27 04:39:03;;;;;;;150.05;70.18;;;10.30;99.90;;;;;;6307961;22;20003;-71
2022/12/27 04:58:03;;;;;;;167.88;76.63;;;10.40;99.90;;;;;;6182937;23;20036;-71
2022/12/27 05:14:00;;;;;;;164.65;74.22;;;10.30;99.90;;;;;;6238674;22;20060;-71
2022/12/27 05:16:34;;;;;;;175.73;77.07;;;10.30;99.90;;;;;;6306574;22;20011;-71
2022/12/27 05:19:00;;;;;;;175.77;79.53;;;10.30;99.90;;;;;;6306839;22;20329;-70
2022/12/27 05:21:27;;;;;;;167.10;75.78;;;10.30;99.90;;;;;;6306699;22;20294;-71
2022/12/27 05:26:37;;;;;;;175.85;78.70;;;10.30;99.90;;;;;;6306831;22;20014;-71
2022/12/27 05:29:05;;;;;;;165.98;77.15;;;10.30;99.90;;;;;;6306776;22;20006;-71
2022/12/27 05:31:31;;;;;;;179.18;78.70;;;10.40;99.90;;;;;;6307106;22;20329;-70
2022/12/27 05:33:57;;;;;;;181.13;81.13;;;10.40;99.90;;;;;;6307524;22;20010;-71
2022/12/27 05:36:23;;;;;;;168.68;79.03;;;10.30;99.90;;;;;;6279742;22;20007;-70
2022/12/27 05:38:50;;;;;;;172.63;81.47;;;10.40;99.90;;;;;;6306886;22;19995;-71
2022/12/27 05:41:15;;;;;;;186.80;83.40;;;10.40;99.90;;;;;;6306848;22;20380;-71
2022/12/27 05:43:41;;;;;;;179.95;79.78;;;10.40;99.90;;;;;;6306892;22;20000;-71
2022/12/27 05:46:17;;;;;;;184.40;82.68;;;10.40;99.90;;;;;;6306980;22;19995;-71
2022/12/27 05:48:43;;;;;;;173.45;81.85;;;10.30;99.90;;;;;;6279378;22;20445;-71
2022/12/27 05:51:19;;;;;;;181.88;85.05;;;10.30;99.90;;;;;;6306472;22;20486;-70
2022/12/27 05:53:46;;;;;;;199.55;88.32;;;10.30;99.90;;;;;;6306988;22;20421;-71
2022/12/27 05:56:20;;;;;;;205.82;93.28;;;10.30;99.90;;;;;;6306790;22;20479;-71
2022/12/27 05:58:46;;;;;;;203.07;94.55;;;10.30;99.90;;;;;;6306363;22;20035;-71
2022/12/27 06:01:17;;;;;;;193.73;90.85;;;10.30;99.90;;;;;;6306659;22;20122;-71
2022/12/27 06:03:43;;;;;;;223.95;98.05;;;10.30;99.90;;;;;;6306510;22;19999;-71
2022/12/27 06:06:10;;;;;;;216.45;92.38;;;10.30;99.90;;;;;;6306447;22;19999;-71
2022/12/27 06:08:36;;;;;;;200.73;91.45;;;10.40;99.90;;;;;;6306937;22;20070;-71
2022/12/27 06:11:11;;;;;;;215.35;93.72;;;10.40;99.90;;;;;;6306752;22;20019;-71
2022/12/27 06:13:39;;;;;;;211.32;94.30;;;10.40;99.90;;;;;;6306952;22;19995;-71
2022/12/27 06:16:09;;;;;;;205.93;89.57;;;10.30;99.90;;;;;;6306473;22;20542;-69
2022/12/27 06:18:36;;;;;;;199.65;89.25;;;10.40;99.90;;;;;;6306890;22;20477;-71
2022/12/27 06:21:11;;;;;;;206.93;92.05;;;10.40;99.90;;;;;;6306526;22;19995;-69
2022/12/27 06:23:39;;;;;;;203.52;90.47;;;10.40;99.90;;;;;;6307772;22;20049;-69
2022/12/27 06:26:19;;;;;;;191.07;84.47;;;10.40;99.90;;;;;;6307392;22;20007;-69
2022/12/27 06:28:45;;;;;;;182.63;86.13;;;10.40;99.90;;;;;;6307965;22;20086;-69
2022/12/27 06:31:12;;;;;;;196.75;84.68;;;10.40;99.90;;;;;;6308679;22;20034;-70
2022/12/27 06:54:32;;;;;;;205.82;83.72;;;10.40;99.90;;;;;;6214139;23;20062;-70
2022/12/27 07:00:13;;;;;;;201.95;88.95;;;10.40;99.90;;;;;;6306663;22;20018;-69
2022/12/27 07:02:39;;;;;;;222.75;91.65;;;10.40;99.90;;;;;;6306895;22;20301;-71
2022/12/27 07:05:06;;;;;;;227.48;92.38;;;10.40;99.90;;;;;;6307895;22;20007;-71
2022/12/27 07:07:32;;;;;;;226.18;94.55;;;10.40;99.90;;;;;;6308333;22;20368;-71
2022/12/27 07:09:58;;;;;;;243.32;93.93;;;10.40;99.90;;;;;;6307797;22;20003;-71
2022/12/27 07:12:24;;;;;;;213.02;89.47;;;10.40;99.90;;;;;;6307869;22;20004;-70
2022/12/27 07:14:50;;;;;;;237.10;96.60;;;10.30;99.90;;;;;;6307959;22;20015;-71
2022/12/27 07:17:15;;;;;;;246.75;94.65;;;10.40;99.90;;;;;;6308030;22;20015;-71
2022/12/27 07:19:41;;;;;;;247.45;96.28;;;10.40;99.90;;;;;;6307980;22;20070;-71
2022/12/27 07:46:58;;;;;;;233.13;93.35;;;10.60;99.90;;;;;;6157874;23;20034;-72
2022/12/27 07:59:29;;;;;;;244.88;95.50;;;10.50;99.90;;;;;;6100050;23;20010;-71
2022/12/27 08:02:04;;;;;;;264.15;103.93;;;;;;;;;;6153738;23;20344;-71
2022/12/27 08:04:31;;;;;;;270.30;104.68;;;;;;;;;;6242102;22;20408;-70
2022/12/27 08:07:01;;;;;;;255.82;102.43;;;;;;;;;;6407142;22;20331;-70
2022/12/27 08:09:29;;;;;;;259.58;101.45;;;;;;;;;;6381055;22;20323;-70
2022/12/27 08:11:55;;;;;;;245.27;100.88;;;;;;;;;;6410562;22;19998;-70
2022/12/27 08:14:21;;;;;;;233.13;98.13;;;;;;;;;;6410515;22;20013;-70
2022/12/27 08:16:47;;;;;;;232.32;95.07;;;;;;;;;;6410529;22;20293;-70
2022/12/27 08:19:13;;;;;;;228.18;93.65;;;;;;;;;;6382107;22;20376;-71
2022/12/27 08:21:39;;;;;;;219.10;94.10;;;;;;;;;;6410525;22;20001;-70
2022/12/27 08:24:06;;;;;;;232.25;98.53;;;;;;;;;;6409987;22;20461;-71
2022/12/27 08:26:32;;;;;;;230.27;97.65;;;;;;;;;;6410005;22;19998;-70
2022/12/27 08:28:58;;;;;;;213.02;89.60;;;;;;;;;;6382024;22;20005;-71
2022/12/27 08:31:24;;;;;;;208.00;91.85;;;;;;;;;;6410193;22;20437;-71
2022/12/27 08:33:50;;;;;;;200.98;88.65;;;;;;;;;;6410009;22;20077;-71
2022/12/27 08:36:16;;;;;;;198.80;88.72;;;;;;;;;;6405817;22;20435;-70
2022/12/27 08:38:42;;;;;;;198.93;88.65;;;;;;;;;;6402622;22;19994;-71
2022/12/27 08:41:08;;;;;;;188.45;87.97;;;;;;;;;;6402579;22;20450;-70
2022/12/27 08:43:35;;;;;;;205.13;89.78;;;;;;;;;;6402850;22;20432;-71
2022/12/27 08:46:02;;;;;;;193.48;87.28;;;;;;;;;;6402633;22;20077;-71
2022/12/27 08:48:30;;;;;;;200.80;91.78;;;;;;;;;;6372174;22;20059;-70
2022/12/27 08:50:56;;;;;;;205.90;90.70;;;;;;;;;;6402064;22;20076;-71
2022/12/27 08:53:22;;;;;;;191.57;89.30;;;;;;;;;;6402660;22;20050;-71
2022/12/27 08:55:48;;;;;;;200.05;90.63;;;;;;;;;;6402054;22;20013;-71
2022/12/27 08:58:14;;;;;;;183.80;87.32;;;;;;;;;;6355825;22;20018;-71
2022/12/27 09:00:40;;;;;;;203.10;89.60;;;;;;;;;;6307923;22;20009;-71
2022/12/27 09:03:09;;;;;;;182.05;83.78;;;;;;;;;;6292100;22;20011;-71
2022/12/27 09:05:35;;;;;;;185.68;81.30;;;;;;;;;;6308162;22;20000;-71
2022/12/27 09:08:01;;;;;;;174.52;76.50;;;;;;;;;;6307635;22;20008;-71
2022/12/27 09:10:28;;;;;;;155.27;69.95;;;;;;;;;;6308583;22;20270;-70
2022/12/27 09:12:54;;;;;;;142.80;68.32;;;;;;;;;;6308526;22;20045;-71
2022/12/27 09:21:36;;;;;;;124.88;58.40;;;;;;;;;;6308757;22;20064;-71
2022/12/27 09:33:32;;;;;;;117.97;53.75;;;;;;;;;;6213172;23;20011;-70
2022/12/27 09:45:07;;;;;;;127.82;56.63;;;;;;;;;;6213919;23;20368;-71
2022/12/27 09:47:40;;;;;;;128.43;60.42;;;;;;;;;;6213211;23;20004;-71
2022/12/27 09:50:17;;;;;;;147.80;68.20;;;;;;;;;;6228607;22;20116;-71
2022/12/27 09:53:04;;;;;;;160.63;70.57;;;;;;;;;;6339109;22;19999;-71
2022/12/27 09:55:49;;;;;;;162.57;74.15;;;;;;;;;;6295861;22;20014;-71
2022/12/27 09:58:33;;;;;;;163.27;77.35;;;;;;;;;;6339175;22;20006;-71
2022/12/27 10:01:00;;;;;;;170.32;78.40;;;;;;;;;;6339131;22;20060;-71
2022/12/27 10:03:27;;;;;;;174.00;79.70;;;;;;;;;;6311341;22;20006;-71
2022/12/27 10:06:14;;;;;;;176.30;79.45;;;;;;;;;;6339157;22;20005;-71
2022/12/27 10:08:48;;;;;;;175.88;77.80;;;;;;;;;;6339004;22;20443;-71
2022/12/27 10:11:37;;;;;;;172.93;81.05;;;;;;;;;;6339387;22;20049;-71
2022/12/27 10:14:15;;;;;;;169.40;76.80;;;;;;;;;;6339283;22;20429;-71
2022/12/27 10:16:42;;;;;;;163.43;74.30;;;;;;;;;;6339079;22;20079;-70
2022/12/27 10:19:17;;;;;;;162.73;73.18;;;;;;;;;;6339046;22;19999;-70
2022/12/27 10:21:51;;;;;;;153.57;72.05;;;;;;;;;;6339265;22;20003;-71
2022/12/27 10:24:20;;;;;;;158.07;73.38;;;;;;;;;;6338692;22;20420;-71
2022/12/27 10:26:46;;;;;;;162.10;72.47;;;;;;;;;;6338861;22;20073;-71
2022/12/27 10:29:23;;;;;;;159.00;74.63;;;;;;;;;;6311368;22;20436;-72
2022/12/27 10:31:49;;;;;;;161.27;72.38;;;;;;;;;;6339218;22;19994;-73
2022/12/27 10:34:22;;;;;;;172.82;78.82;;;10.50;99.90;;;;;;6338917;22;20099;-73
2022/12/27 10:36:50;;;;;;;172.40;76.93;;;11.20;99.90;;;;;;6311281;22;20025;-72
2022/12/27 10:39:20;;;;;;;166.23;74.57;;;11.20;99.90;;;;;;6338674;22;20019;-72
2022/12/27 10:42:21;;;;;;;173.82;79.28;;;11.20;99.90;;;;;;6338721;22;19995;-72
2022/12/27 10:44:47;;;;;;;187.02;81.80;;;11.20;99.90;;;;;;6338587;22;20486;-72
2022/12/27 10:47:14;;;;;;;193.57;85.88;;;11.20;99.90;;;;;;6311034;22;19999;-74
2022/12/27 10:50:00;;;;;;;183.10;84.00;;;11.20;99.90;;;;;;6338431;22;20024;-72
2022/12/27 10:52:30;;;;;;;178.15;80.82;;;11.10;99.90;;;;;;6339779;22;20325;-71
2022/12/27 10:54:56;;;;;;;181.45;81.88;;;11.20;99.90;;;;;;6339372;22;20049;-71
2022/12/27 10:57:33;;;;;;;172.95;80.82;;;11.20;99.90;;;;;;6339278;22;20040;-71
2022/12/27 11:00:19;;;;;;;178.43;83.35;;;11.10;99.90;;;;;;6339195;22;20352;-71
2022/12/27 11:03:17;;;;;;;170.68;78.05;;;11.10;99.90;;;;;;6339493;22;20366;-71
2022/12/27 11:10:10;;;;;;;176.43;78.53;;;11.10;99.90;;;;;;6339554;22;20167;-71
2022/12/27 11:26:19;;;;;;;195.68;86.32;;;11.10;99.90;;;;;;6218890;22;20007;-70
2022/12/27 11:29:33;;;;;;;195.43;86.38;;;11.10;99.90;;;;;;6337506;22;20003;-71
2022/12/27 11:33:03;;;;;;;205.70;87.28;;;11.10;99.90;;;;;;6338492;22;20324;-71
2022/12/27 11:35:30;;;;;;;204.85;86.47;;;11.10;99.90;;;;;;6322167;22;20337;-71
2022/12/27 11:37:56;;;;;;;192.35;82.88;;;11.10;99.90;;;;;;6338560;22;20332;-71
2022/12/27 11:40:33;;;;;;;196.02;88.20;;;11.20;99.90;;;;;;6337845;22;20006;-71
2022/12/27 11:43:14;;;;;;;207.73;87.93;;;11.20;99.90;;;;;;6336966;22;20363;-71
2022/12/27 11:45:45;;;;;;;192.73;83.15;;;11.10;99.90;;;;;;6335167;22;20038;-71
2022/12/27 11:48:23;;;;;;;206.20;88.97;;;11.20;99.90;;;;;;6335011;22;20094;-71
2022/12/27 11:51:11;;;;;;;209.85;85.30;;;11.10;99.90;;;;;;6337861;22;20368;-71
2022/12/27 11:54:10;;;;;;;211.57;87.50;;;11.20;99.90;;;;;;6337888;22;20057;-71
2022/12/27 11:56:50;;;;;;;210.85;90.60;;;11.10;99.90;;;;;;6338355;22;20332;-71
2022/12/27 11:59:35;;;;;;;218.68;96.10;;;11.10;99.90;;;;;;6337352;22;19999;-71
2022/12/27 12:02:22;;;;;;;226.23;102.55;;;11.10;99.90;;;;;;6337985;22;20002;-71
2022/12/27 12:05:19;;;;;;;213.43;92.35;;;11.20;99.90;;;;;;6338126;22;20010;-71
2022/12/27 12:08:03;;;;;;;210.18;90.43;;;11.20;99.90;;;;;;6338201;22;20456;-71
2022/12/27 12:10:44;;;;;;;208.88;92.60;;;11.20;99.90;;;;;;6310881;22;20431;-71
2022/12/27 12:13:23;;;;;;;211.80;89.55;;;11.20;99.90;;;;;;6339507;22;20409;-73
2022/12/27 12:16:32;;;;;;;213.15;89.78;;;11.20;99.90;;;;;;6339951;22;20017;-73
2022/12/27 12:19:19;;;;;;;214.88;91.72;;;11.20;99.90;;;;;;6339488;22;20413;-70
2022/12/27 12:21:53;;;;;;;205.43;90.65;;;11.20;99.90;;;;;;6339557;22;20060;-71
2022/12/27 12:24:49;;;;;;;209.38;89.22;;;11.20;99.90;;;;;;6340084;22;20007;-71
2022/12/27 12:27:47;;;;;;;206.02;86.55;;;11.30;99.90;;;;;;6339619;22;20367;-71
2022/12/27 12:30:32;;;;;;;209.10;90.20;;;11.30;99.90;;;;;;6299296;22;20003;-71
2022/12/27 12:33:06;;;;;;;208.23;90.68;;;11.30;99.90;;;;;;6339332;22;19999;-71
2022/12/27 12:36:06;;;;;;;206.43;91.00;;;11.30;99.90;;;;;;6339191;22;20045;-70
2022/12/27 12:39:29;;;;;;;198.20;87.85;;;11.30;99.90;;;;;;6339442;22;20015;-71
2022/12/27 12:42:03;;;;;;;215.07;88.72;;;11.40;99.90;;;;;;6244730;23;20043;-71
2022/12/27 12:44:37;;;;;;;214.88;92.55;;;11.30;99.90;;;;;;6244999;23;20004;-70
2022/12/27 12:47:56;;;;;;;208.13;89.03;;;11.40;99.90;;;;;;6312683;22;20017;-71
2022/12/27 12:53:45;;;;;;;197.07;86.07;;;11.40;99.90;;;;;;6182746;23;20024;-70
2022/12/27 13:00:51;;;;;;;209.63;91.03;;;11.40;99.90;;;;;;6065726;23;20018;-71
2022/12/27 13:04:05;;;;;;;201.02;87.82;;;11.30;99.90;;;;;;6066828;23;20017;-73
2022/12/27 13:07:40;;;;;;;;;;;;;;;;;;;;;
2022/12/27 13:10:24;;;;;;;215.88;92.28;;;11.40;99.90;;;;;;6074352;23;20858;-73
2022/12/27 13:13:53;;;;;;;204.27;87.78;;;11.40;99.90;;;;;;6181969;23;20021;-71
2022/12/27 13:17:19;;;;;;;207.55;86.50;;;11.40;99.90;;;;;;6152625;23;20053;-73
2022/12/27 13:20:35;;;;;;;191.10;83.82;;;11.40;99.90;;;;;;6153661;23;20044;-73
2022/12/27 13:23:24;;;;;;;211.60;89.38;;;11.40;99.90;;;;;;6146110;23;20307;-70
2022/12/27 13:26:27;;;;;;;212.93;88.88;;;11.50;99.90;;;;;;6205470;22;20339;-73
2022/12/27 13:29:20;;;;;;;200.63;85.35;;;11.50;99.90;;;;;;6339381;22;20325;-70
2022/12/27 13:32:04;;;;;;;193.57;84.75;;;11.50;99.90;;;;;;6339777;22;19994;-70
2022/12/27 13:34:48;;;;;;;199.70;84.88;;;11.50;99.90;;;;;;6339165;22;20328;-71
2022/12/27 13:37:46;;;;;;;203.80;84.15;;;11.50;99.90;;;;;;6311316;22;20374;-73
2022/12/27 13:40:36;;;;;;;199.73;82.35;;;11.60;99.90;;;;;;6256888;22;20583;-73
2022/12/27 13:43:23;;;;;;;197.60;81.45;;;11.60;99.90;;;;;;6311495;22;20049;-73
2022/12/27 13:46:19;;;;;;;190.55;80.68;;;11.60;99.90;;;;;;6339157;22;19998;-70
2022/12/27 13:49:03;;;;;;;188.02;80.28;;;11.70;99.90;;;;;;6339243;22;20441;-73
2022/12/27 13:51:49;;;;;;;193.77;77.88;;;11.70;99.90;;;;;;6339003;22;20025;-71
2022/12/27 13:54:44;;;;;;;200.20;82.20;;;11.70;99.90;;;;;;6338257;22;20010;-73
2022/12/27 13:57:13;;;;;;;193.25;77.00;;;11.70;99.90;;;;;;6302212;22;20417;-73
2022/12/27 14:00:19;;;;;;;178.75;77.25;;;11.70;99.90;;;;;;6311072;22;19999;-70
2022/12/27 14:03:06;;;;;;;187.40;77.40;;;11.70;99.90;;;;;;6337195;22;20517;-73
2022/12/27 14:06:02;;;;;;;180.05;76.35;;;11.70;99.90;;;;;;6335049;22;20329;-73
2022/12/27 14:08:34;;;;;;;172.30;72.63;;;11.70;99.90;;;;;;6335275;22;20010;-72
2022/12/27 14:11:00;;;;;;;172.23;75.33;;;11.70;99.90;;;;;;6337956;22;20005;-70
2022/12/27 14:13:35;;;;;;;176.65;72.80;;;11.80;99.90;;;;;;6338772;22;20079;-70
2022/12/27 14:16:19;;;;;;;178.98;73.90;;;11.80;99.90;;;;;;6311153;22;20519;-71
2022/12/27 14:19:07;;;;;;;187.40;76.65;;;11.80;99.90;;;;;;6338474;22;19995;-73
2022/12/27 14:21:45;;;;;;;197.57;78.93;;;11.70;99.90;;;;;;6339148;22;20022;-70
2022/12/27 14:24:35;;;;;;;182.85;79.00;;;11.80;99.90;;;;;;6311028;22;20328;-73
2022/12/27 14:27:37;;;;;;;200.77;81.72;;;11.80;99.90;;;;;;6339213;22;20010;-69
2022/12/27 14:30:40;;;;;;;186.02;80.05;;;11.80;99.90;;;;;;6339770;22;20104;-73
2022/12/27 14:33:43;;;;;;;181.05;80.30;;;11.80;99.90;;;;;;6339105;22;20003;-73
2022/12/27 14:36:31;;;;;;;187.75;81.50;;;11.80;99.90;;;;;;6339331;22;20003;-73
2022/12/27 15:07:00;;;;;;;183.07;77.90;;;11.70;99.90;;;;;;6212469;23;20012;-73
2022/12/27 15:09:07;;;;;;;185.93;79.18;;;11.60;99.90;;;;;;6196705;22;20027;-73
2022/12/27 15:11:41;;;;;;;187.18;79.50;;;11.60;99.90;;;;;;6310652;22;20355;-70
2022/12/27 15:14:29;;;;;;;182.93;79.22;;;11.60;99.90;;;;;;6338842;22;20336;-70
2022/12/27 15:17:42;;;;;;;200.80;84.80;;;11.50;99.90;;;;;;6338471;22;20003;-73
2022/12/27 15:20:26;;;;;;;184.40;81.40;;;11.50;99.90;;;;;;6329942;22;20375;-73
2022/12/27 15:23:18;;;;;;;181.57;77.97;;;11.50;99.90;;;;;;6338436;22;20386;-70
2022/12/27 15:25:44;;;;;;;187.35;80.72;;;11.50;99.90;;;;;;6338476;22;19999;-73
2022/12/27 15:28:33;;;;;;;191.45;82.05;;;11.50;99.90;;;;;;6310940;22;19999;-70
2022/12/27 15:31:17;;;;;;;184.25;79.20;;;11.50;99.90;;;;;;6338409;22;20380;-70
2022/12/27 15:34:06;;;;;;;185.40;79.68;;;11.50;99.90;;;;;;6338159;22;19999;-73
2022/12/27 15:36:39;;;;;;;184.82;83.32;;;11.50;99.90;;;;;;6310262;22;20015;-71
2022/12/27 15:39:25;;;;;;;185.15;82.22;;;11.50;99.90;;;;;;6338423;22;20441;-73
2022/12/27 15:42:18;;;;;;;190.80;85.07;;;11.40;99.90;;;;;;6337876;22;20011;-70
2022/12/27 15:45:29;;;;;;;189.27;82.82;;;11.40;99.90;;;;;;6338389;22;20060;-73
2022/12/27 15:48:24;;;;;;;187.10;87.35;;;11.40;99.90;;;;;;6339659;22;20524;-72
2022/12/27 15:51:17;;;;;;;187.02;81.80;;;11.30;99.90;;;;;;6336832;22;20486;-72
2022/12/27 15:53:43;;;;;;;;;;;11.30;99.90;;;;;;6338277;22;19995;-72
2022/12/27 15:56:32;;;;;;;188.20;81.10;;;11.30;99.90;;;;;;6340091;22;19914;-72
2022/12/27 15:59:35;;;;;;;200.07;85.47;;;11.30;99.90;;;;;;6340240;22;19999;-72
2022/12/27 16:02:16;;;;;;;185.43;81.95;;;11.20;99.90;;;;;;6340425;22;20007;-72
2022/12/27 16:04:45;;;;;;;189.38;82.20;;;11.20;99.90;;;;;;6340120;22;20006;-72
2022/12/27 16:07:35;;;;;;;185.30;83.22;;;11.20;99.90;;;;;;6312624;22;20392;-72
2022/12/27 16:10:39;;;;;;;187.80;82.40;;;11.20;99.90;;;;;;6340199;22;19998;-72
2022/12/27 16:13:37;;;;;;;190.68;83.80;;;11.10;99.90;;;;;;6292155;22;20006;-72
2022/12/27 16:16:04;;;;;;;198.63;87.15;;;11.10;99.90;;;;;;6308824;22;20011;-72
2022/12/27 16:18:30;;;;;;;204.40;90.07;;;11.10;99.90;;;;;;6313257;22;20011;-72
2022/12/27 16:21:12;;;;;;;204.82;93.20;;;11.10;99.90;;;;;;6340981;22;20366;-72
2022/12/27 16:23:58;;;;;;;186.43;84.45;;;11.10;99.90;;;;;;6340477;22;19998;-72
2022/12/27 16:46:45;;;;;;;201.07;86.88;;;10.90;99.90;;;;;;6226547;22;20122;-72
2022/12/27 16:53:31;;;;;;;195.57;88.30;;;10.80;99.90;;;;;;6340097;22;20086;-72
2022/12/27 16:56:15;;;;;;;192.52;92.80;;;10.80;99.90;;;;;;6340106;22;20336;-72
2022/12/27 16:58:41;;;;;;;193.60;89.00;;;10.80;99.90;;;;;;6339620;22;20317;-72
2022/12/27 17:01:34;;;;;;;188.18;85.40;;;10.80;99.90;;;;;;6339468;22;20006;-72
2022/12/27 17:04:02;;;;;;;183.45;85.47;;;10.80;99.90;;;;;;6339872;22;20444;-70
2022/12/27 17:06:27;;;;;;;190.18;85.75;;;10.70;99.90;;;;;;6339582;22;19999;-70
2022/12/27 17:09:08;;;;;;;197.50;85.40;;;10.70;99.90;;;;;;6339471;22;20009;-70
2022/12/27 17:11:40;;;;;;;206.63;90.32;;;10.70;99.90;;;;;;6339899;22;20011;-72
2022/12/27 17:14:17;;;;;;;188.82;84.05;;;10.70;99.90;;;;;;6339365;22;20426;-72
2022/12/27 17:16:50;;;;;;;193.65;85.18;;;10.70;99.90;;;;;;6339674;22;20367;-71
2022/12/27 17:19:46;;;;;;;193.20;86.00;;;10.70;99.90;;;;;;6339704;22;20002;-72
2022/12/27 17:22:15;;;;;;;194.65;82.57;;;10.70;99.90;;;;;;6339319;22;20433;-72
2022/12/27 17:24:44;;;;;;;191.45;83.70;;;10.70;99.90;;;;;;6339448;22;19999;-72
2022/12/27 17:27:12;;;;;;;185.35;81.13;;;10.70;99.90;;;;;;6339675;22;20002;-72
2022/12/27 17:29:59;;;;;;;170.95;77.30;;;10.70;99.90;;;;;;6339541;22;20413;-72
2022/12/27 17:32:46;;;;;;;178.88;79.38;;;10.80;99.90;;;;;;6339402;22;20425;-72
2022/12/27 17:35:24;;;;;;;185.35;81.30;;;10.80;99.90;;;;;;6339408;22;20428;-72
2022/12/27 17:38:23;;;;;;;185.68;83.10;;;10.80;99.90;;;;;;6339767;22;19999;-73
2022/12/27 17:41:01;;;;;;;191.57;82.85;;;10.80;99.90;;;;;;6339261;22;20089;-72
2022/12/27 17:46:41;;;;;;;165.60;75.93;;;10.80;99.90;;;;;;6339304;22;20056;-72
2022/12/27 17:49:10;;;;;;;176.80;80.40;;;10.80;99.90;;;;;;6338611;22;19999;-72
2022/12/27 17:57:52;;;;;;;181.73;83.28;;;10.80;99.90;;;;;;6310981;22;19999;-72
2022/12/27 17:59:59;;;;;;;162.93;76.00;;;10.70;99.90;;;;;;6339463;22;20026;-72
2022/12/27 18:02:36;;;;;;;176.23;81.15;;;10.70;99.90;;;;;;6339709;22;20417;-72
2022/12/27 18:05:06;;;;;;;173.27;80.97;;;10.80;99.90;;;;;;6335139;22;20011;-72
2022/12/27 18:07:33;;;;;;;176.85;79.25;;;10.70;99.90;;;;;;6335123;22;20003;-73
2022/12/27 18:10:25;;;;;;;173.10;79.35;;;10.70;99.90;;;;;;6335955;22;20002;-72
2022/12/27 18:34:18;;;;;;;175.18;79.80;;;10.60;99.90;;;;;;5924425;24;20028;-73
2022/12/27 18:37:39;;;;;;;179.43;80.63;;;10.60;99.90;;;;;;5920140;24;20565;-70
2022/12/27 18:40:16;;;;;;;165.57;79.25;;;10.60;99.90;;;;;;5920562;24;20368;-71
2022/12/27 18:42:43;;;;;;;182.82;81.55;;;10.60;99.90;;;;;;6003030;23;20434;-71
2022/12/27 18:45:25;;;;;;;165.55;80.10;;;10.60;99.90;;;;;;6023535;23;20351;-71